sensor_id;sensor_type;location;lat;lon;timestamp;temperature;humidity
76855;DHT22;66343;44.588;33.450;2023-05-10T00:01:55;9.52;76.26
76855;DHT22;66343;44.588;33.450;2023-05-10T00:04:26;9.55;76.02
76855;DHT22;66343;44.588;33.450;2023-05-10T00:06:56;9.55;75.83
76855;DHT22;66343;44.588;33.450;2023-05-10T00:09:30;9.52;75.54
76855;DHT22;66343;44.588;33.450;2023-05-10T00:12:08;9.49;75.63
76855;DHT22;66343;44.588;33.450;2023-05-10T00:14:37;9.39;75.95
76855;DHT22;66343;44.588;33.450;2023-05-10T00:17:11;9.37;75.88
76855;DHT22;66343;44.588;33.450;2023-05-10T00:19:45;9.37;76.06
76855;DHT22;66343;44.588;33.450;2023-05-10T00:22:18;9.39;75.81
76855;DHT22;66343;44.588;33.450;2023-05-10T00:24:47;9.39;75.73
76855;DHT22;66343;44.588;33.450;2023-05-10T00:27:27;9.39;75.73
76855;DHT22;66343;44.588;33.450;2023-05-10T00:29:59;9.45;75.97
76855;DHT22;66343;44.588;33.450;2023-05-10T00:32:30;9.48;75.54
76855;DHT22;66343;44.588;33.450;2023-05-10T00:35:04;9.53;75.19
76855;DHT22;66343;44.588;33.450;2023-05-10T00:37:35;9.55;75.02
76855;DHT22;66343;44.588;33.450;2023-05-10T00:40:07;9.50;74.93
76855;DHT22;66343;44.588;33.450;2023-05-10T00:42:39;9.44;74.86
76855;DHT22;66343;44.588;33.450;2023-05-10T00:45:14;9.39;74.72
76855;DHT22;66343;44.588;33.450;2023-05-10T00:47:46;9.39;74.56
76855;DHT22;66343;44.588;33.450;2023-05-10T00:50:15;9.38;74.51
76855;DHT22;66343;44.588;33.450;2023-05-10T00:52:52;9.38;74.40
76855;DHT22;66343;44.588;33.450;2023-05-10T00:55:27;9.35;74.33
76855;DHT22;66343;44.588;33.450;2023-05-10T00:57:57;9.31;74.60
76855;DHT22;66343;44.588;33.450;2023-05-10T01:00:32;9.26;74.77
76855;DHT22;66343;44.588;33.450;2023-05-10T01:03:07;9.25;74.88
76855;DHT22;66343;44.588;33.450;2023-05-10T01:05:42;9.22;75.18
76855;DHT22;66343;44.588;33.450;2023-05-10T01:08:16;9.21;75.26
76855;DHT22;66343;44.588;33.450;2023-05-10T01:10:50;9.21;75.34
76855;DHT22;66343;44.588;33.450;2023-05-10T01:13:44;9.23;75.50
76855;DHT22;66343;44.588;33.450;2023-05-10T01:16:21;9.25;75.69
76855;DHT22;66343;44.588;33.450;2023-05-10T01:18:54;9.29;75.59
76855;DHT22;66343;44.588;33.450;2023-05-10T01:22:02;9.31;75.67
76855;DHT22;66343;44.588;33.450;2023-05-10T01:33:32;9.27;75.99
76855;DHT22;66343;44.588;33.450;2023-05-10T01:36:13;9.27;75.95
76855;DHT22;66343;44.588;33.450;2023-05-10T01:38:52;9.27;75.82
76855;DHT22;66343;44.588;33.450;2023-05-10T01:44:37;9.27;75.60
76855;DHT22;66343;44.588;33.450;2023-05-10T01:47:14;9.23;75.51
76855;DHT22;66343;44.588;33.450;2023-05-10T01:49:55;9.21;75.65
76855;DHT22;66343;44.588;33.450;2023-05-10T01:52:31;9.21;75.70
76855;DHT22;66343;44.588;33.450;2023-05-10T01:55:12;9.20;75.62
76855;DHT22;66343;44.588;33.450;2023-05-10T01:57:44;9.18;76.05
76855;DHT22;66343;44.588;33.450;2023-05-10T02:00:19;9.19;75.63
76855;DHT22;66343;44.588;33.450;2023-05-10T02:02:52;9.18;75.76
76855;DHT22;66343;44.588;33.450;2023-05-10T02:05:32;9.14;75.60
76855;DHT22;66343;44.588;33.450;2023-05-10T02:08:07;9.14;75.68
76855;DHT22;66343;44.588;33.450;2023-05-10T02:10:45;9.12;75.74
76855;DHT22;66343;44.588;33.450;2023-05-10T02:13:18;9.05;75.81
76855;DHT22;66343;44.588;33.450;2023-05-10T02:15:51;9.04;75.67
76855;DHT22;66343;44.588;33.450;2023-05-10T02:18:26;9.06;75.62
76855;DHT22;66343;44.588;33.450;2023-05-10T02:21:03;9.04;75.65
76855;DHT22;66343;44.588;33.450;2023-05-10T02:23:34;9.06;75.61
76855;DHT22;66343;44.588;33.450;2023-05-10T02:26:07;9.03;75.72
76855;DHT22;66343;44.588;33.450;2023-05-10T02:28:48;9.03;75.69
76855;DHT22;66343;44.588;33.450;2023-05-10T02:31:19;9.05;75.68
76855;DHT22;66343;44.588;33.450;2023-05-10T02:33:51;9.03;75.66
76855;DHT22;66343;44.588;33.450;2023-05-10T02:36:32;9.00;75.76
76855;DHT22;66343;44.588;33.450;2023-05-10T02:39:05;9.05;75.57
76855;DHT22;66343;44.588;33.450;2023-05-10T02:41:42;9.02;75.64
76855;DHT22;66343;44.588;33.450;2023-05-10T02:44:17;9.00;75.60
76855;DHT22;66343;44.588;33.450;2023-05-10T02:46:50;8.96;75.64
76855;DHT22;66343;44.588;33.450;2023-05-10T02:49:21;8.93;75.84
76855;DHT22;66343;44.588;33.450;2023-05-10T02:51:56;8.94;75.86
76855;DHT22;66343;44.588;33.450;2023-05-10T02:54:34;8.98;75.74
76855;DHT22;66343;44.588;33.450;2023-05-10T02:57:14;9.02;75.77
76855;DHT22;66343;44.588;33.450;2023-05-10T02:59:52;9.07;75.44
76855;DHT22;66343;44.588;33.450;2023-05-10T03:02:24;9.10;75.37
76855;DHT22;66343;44.588;33.450;2023-05-10T03:04:53;9.15;75.23
76855;DHT22;66343;44.588;33.450;2023-05-10T03:07:26;9.19;75.20
76855;DHT22;66343;44.588;33.450;2023-05-10T03:10:01;9.21;75.16
76855;DHT22;66343;44.588;33.450;2023-05-10T03:18:45;9.32;74.39
76855;DHT22;66343;44.588;33.450;2023-05-10T03:21:20;9.37;74.21
76855;DHT22;66343;44.588;33.450;2023-05-10T03:23:59;9.38;74.26
76855;DHT22;66343;44.588;33.450;2023-05-10T03:26:36;9.39;74.26
76855;DHT22;66343;44.588;33.450;2023-05-10T03:29:20;9.38;74.35
76855;DHT22;66343;44.588;33.450;2023-05-10T03:31:53;9.38;74.28
76855;DHT22;66343;44.588;33.450;2023-05-10T03:34:30;9.34;74.16
76855;DHT22;66343;44.588;33.450;2023-05-10T03:37:00;9.34;74.38
76855;DHT22;66343;44.588;33.450;2023-05-10T03:39:40;9.33;74.09
76855;DHT22;66343;44.588;33.450;2023-05-10T03:42:14;9.34;74.32
76855;DHT22;66343;44.588;33.450;2023-05-10T03:44:48;9.39;74.34
76855;DHT22;66343;44.588;33.450;2023-05-10T03:47:27;9.44;73.93
76855;DHT22;66343;44.588;33.450;2023-05-10T03:49:57;9.47;73.83
76855;DHT22;66343;44.588;33.450;2023-05-10T03:52:33;9.46;73.96
76855;DHT22;66343;44.588;33.450;2023-05-10T03:55:06;9.49;73.96
76855;DHT22;66343;44.588;33.450;2023-05-10T03:57:38;9.54;73.71
76855;DHT22;66343;44.588;33.450;2023-05-10T04:00:18;9.57;73.77
76855;DHT22;66343;44.588;33.450;2023-05-10T04:02:57;9.66;73.74
76855;DHT22;66343;44.588;33.450;2023-05-10T04:05:27;9.69;73.36
76855;DHT22;66343;44.588;33.450;2023-05-10T04:07:56;9.74;73.06
76855;DHT22;66343;44.588;33.450;2023-05-10T04:10:31;9.78;72.90
76855;DHT22;66343;44.588;33.450;2023-05-10T04:13:10;9.83;72.16
76855;DHT22;66343;44.588;33.450;2023-05-10T04:15:46;9.91;72.21
76855;DHT22;66343;44.588;33.450;2023-05-10T04:18:20;9.97;71.96
76855;DHT22;66343;44.588;33.450;2023-05-10T04:20:55;9.97;72.09
76855;DHT22;66343;44.588;33.450;2023-05-10T04:23:27;9.99;71.80
76855;DHT22;66343;44.588;33.450;2023-05-10T04:26:00;10.04;71.43
76855;DHT22;66343;44.588;33.450;2023-05-10T04:28:30;10.03;71.33
76855;DHT22;66343;44.588;33.450;2023-05-10T04:31:08;10.00;70.83
76855;DHT22;66343;44.588;33.450;2023-05-10T04:33:40;9.99;71.19
76855;DHT22;66343;44.588;33.450;2023-05-10T04:36:14;10.00;71.00
76855;DHT22;66343;44.588;33.450;2023-05-10T04:38:44;10.04;70.66
76855;DHT22;66343;44.588;33.450;2023-05-10T04:41:16;10.08;70.78
76855;DHT22;66343;44.588;33.450;2023-05-10T04:43:45;10.09;71.22
76855;DHT22;66343;44.588;33.450;2023-05-10T04:46:22;10.15;70.83
76855;DHT22;66343;44.588;33.450;2023-05-10T04:48:51;10.20;70.93
76855;DHT22;66343;44.588;33.450;2023-05-10T04:51:27;10.25;70.55
76855;DHT22;66343;44.588;33.450;2023-05-10T04:53:58;10.29;70.35
76855;DHT22;66343;44.588;33.450;2023-05-10T04:56:41;10.28;69.96
76855;DHT22;66343;44.588;33.450;2023-05-10T04:59:15;10.31;70.03
76855;DHT22;66343;44.588;33.450;2023-05-10T05:01:44;10.37;69.87
76855;DHT22;66343;44.588;33.450;2023-05-10T05:04:16;10.38;70.14
76855;DHT22;66343;44.588;33.450;2023-05-10T05:06:50;10.40;70.24
76855;DHT22;66343;44.588;33.450;2023-05-10T05:09:28;10.46;69.36
76855;DHT22;66343;44.588;33.450;2023-05-10T05:12:01;10.51;69.10
76855;DHT22;66343;44.588;33.450;2023-05-10T05:14:32;10.56;68.42
76855;DHT22;66343;44.588;33.450;2023-05-10T05:17:06;10.57;68.79
76855;DHT22;66343;44.588;33.450;2023-05-10T05:19:37;10.60;68.72
76855;DHT22;66343;44.588;33.450;2023-05-10T05:22:13;10.67;68.01
76855;DHT22;66343;44.588;33.450;2023-05-10T05:24:44;10.70;67.36
76855;DHT22;66343;44.588;33.450;2023-05-10T05:27:17;10.74;67.55
76855;DHT22;66343;44.588;33.450;2023-05-10T05:29:54;10.81;66.32
76855;DHT22;66343;44.588;33.450;2023-05-10T05:32:30;10.85;65.95
76855;DHT22;66343;44.588;33.450;2023-05-10T05:35:00;10.92;65.42
76855;DHT22;66343;44.588;33.450;2023-05-10T05:37:33;10.95;64.88
76855;DHT22;66343;44.588;33.450;2023-05-10T05:40:11;10.98;65.02
76855;DHT22;66343;44.588;33.450;2023-05-10T05:42:43;10.92;65.35
76855;DHT22;66343;44.588;33.450;2023-05-10T05:45:17;10.87;64.67
76855;DHT22;66343;44.588;33.450;2023-05-10T05:47:50;10.92;64.33
76855;DHT22;66343;44.588;33.450;2023-05-10T05:50:22;10.94;63.30
76855;DHT22;66343;44.588;33.450;2023-05-10T05:52:56;10.99;63.14
76855;DHT22;66343;44.588;33.450;2023-05-10T05:55:33;10.99;62.95
76855;DHT22;66343;44.588;33.450;2023-05-10T05:58:08;11.02;63.07
76855;DHT22;66343;44.588;33.450;2023-05-10T06:00:42;11.02;62.95
76855;DHT22;66343;44.588;33.450;2023-05-10T06:03:19;11.02;63.10
76855;DHT22;66343;44.588;33.450;2023-05-10T06:05:49;11.08;63.04
76855;DHT22;66343;44.588;33.450;2023-05-10T06:08:23;11.13;62.24
76855;DHT22;66343;44.588;33.450;2023-05-10T06:11:01;11.09;62.53
76855;DHT22;66343;44.588;33.450;2023-05-10T06:13:33;11.19;62.85
76855;DHT22;66343;44.588;33.450;2023-05-10T06:16:12;11.19;63.26
76855;DHT22;66343;44.588;33.450;2023-05-10T06:18:46;11.15;63.81
76855;DHT22;66343;44.588;33.450;2023-05-10T06:21:18;11.19;63.82
76855;DHT22;66343;44.588;33.450;2023-05-10T06:23:54;11.17;63.15
76855;DHT22;66343;44.588;33.450;2023-05-10T06:26:29;11.20;63.06
76855;DHT22;66343;44.588;33.450;2023-05-10T06:29:01;11.27;63.37
76855;DHT22;66343;44.588;33.450;2023-05-10T06:31:33;11.36;63.91
76855;DHT22;66343;44.588;33.450;2023-05-10T06:34:06;11.42;63.93
76855;DHT22;66343;44.588;33.450;2023-05-10T06:36:46;11.44;63.60
76855;DHT22;66343;44.588;33.450;2023-05-10T06:39:18;11.40;63.39
76855;DHT22;66343;44.588;33.450;2023-05-10T06:41:52;11.42;63.27
76855;DHT22;66343;44.588;33.450;2023-05-10T06:44:28;11.47;63.79
76855;DHT22;66343;44.588;33.450;2023-05-10T06:47:05;11.54;62.69
76855;DHT22;66343;44.588;33.450;2023-05-10T06:49:45;11.60;62.37
76855;DHT22;66343;44.588;33.450;2023-05-10T06:52:17;11.60;62.08
76855;DHT22;66343;44.588;33.450;2023-05-10T06:54:55;11.60;62.64
76855;DHT22;66343;44.588;33.450;2023-05-10T06:57:27;11.60;62.70
76855;DHT22;66343;44.588;33.450;2023-05-10T07:00:03;11.66;62.03
76855;DHT22;66343;44.588;33.450;2023-05-10T07:02:36;11.58;61.75
76855;DHT22;66343;44.588;33.450;2023-05-10T07:05:12;11.68;61.13
76855;DHT22;66343;44.588;33.450;2023-05-10T07:07:50;11.73;60.62
76855;DHT22;66343;44.588;33.450;2023-05-10T07:10:23;11.75;59.99
76855;DHT22;66343;44.588;33.450;2023-05-10T07:12:58;11.82;59.28
76855;DHT22;66343;44.588;33.450;2023-05-10T07:15:30;11.84;60.23
76855;DHT22;66343;44.588;33.450;2023-05-10T07:18:01;11.90;59.77
76855;DHT22;66343;44.588;33.450;2023-05-10T07:20:35;11.99;58.74
76855;DHT22;66343;44.588;33.450;2023-05-10T07:23:07;12.12;58.64
76855;DHT22;66343;44.588;33.450;2023-05-10T07:25:41;12.17;57.59
76855;DHT22;66343;44.588;33.450;2023-05-10T07:28:16;12.25;57.15
76855;DHT22;66343;44.588;33.450;2023-05-10T07:30:48;12.25;57.15
76855;DHT22;66343;44.588;33.450;2023-05-10T07:33:21;12.35;57.65
76855;DHT22;66343;44.588;33.450;2023-05-10T07:36:00;12.48;56.55
76855;DHT22;66343;44.588;33.450;2023-05-10T07:38:31;12.56;56.16
76855;DHT22;66343;44.588;33.450;2023-05-10T07:41:07;12.63;55.49
76855;DHT22;66343;44.588;33.450;2023-05-10T07:43:42;12.71;55.81
76855;DHT22;66343;44.588;33.450;2023-05-10T07:46:16;12.71;54.31
76855;DHT22;66343;44.588;33.450;2023-05-10T07:48:46;12.65;54.59
76855;DHT22;66343;44.588;33.450;2023-05-10T07:51:16;12.61;55.69
76855;DHT22;66343;44.588;33.450;2023-05-10T07:53:45;12.73;54.82
76855;DHT22;66343;44.588;33.450;2023-05-10T07:56:31;12.72;53.46
76855;DHT22;66343;44.588;33.450;2023-05-10T07:59:06;12.70;53.37
76855;DHT22;66343;44.588;33.450;2023-05-10T08:01:43;12.74;54.30
76855;DHT22;66343;44.588;33.450;2023-05-10T08:04:18;12.90;54.78
76855;DHT22;66343;44.588;33.450;2023-05-10T08:06:54;12.92;52.84
76855;DHT22;66343;44.588;33.450;2023-05-10T08:09:25;12.85;52.73
76855;DHT22;66343;44.588;33.450;2023-05-10T08:12:02;12.86;52.12
76855;DHT22;66343;44.588;33.450;2023-05-10T08:14:34;13.02;52.96
76855;DHT22;66343;44.588;33.450;2023-05-10T08:17:09;13.15;51.94
76855;DHT22;66343;44.588;33.450;2023-05-10T08:19:41;13.29;51.34
76855;DHT22;66343;44.588;33.450;2023-05-10T08:22:13;13.40;51.23
76855;DHT22;66343;44.588;33.450;2023-05-10T08:24:52;13.51;50.49
76855;DHT22;66343;44.588;33.450;2023-05-10T08:27:23;13.49;48.92
76855;DHT22;66343;44.588;33.450;2023-05-10T08:29:55;13.45;49.55
76855;DHT22;66343;44.588;33.450;2023-05-10T08:32:29;13.51;47.67
76855;DHT22;66343;44.588;33.450;2023-05-10T08:35:05;13.53;48.12
76855;DHT22;66343;44.588;33.450;2023-05-10T08:37:37;13.68;48.84
76855;DHT22;66343;44.588;33.450;2023-05-10T08:40:14;13.76;48.53
76855;DHT22;66343;44.588;33.450;2023-05-10T08:43:08;13.76;50.31
76855;DHT22;66343;44.588;33.450;2023-05-10T08:45:41;13.90;49.98
76855;DHT22;66343;44.588;33.450;2023-05-10T08:48:11;13.98;51.29
76855;DHT22;66343;44.588;33.450;2023-05-10T08:50:47;13.97;50.02
76855;DHT22;66343;44.588;33.450;2023-05-10T08:53:24;13.94;50.11
76855;DHT22;66343;44.588;33.450;2023-05-10T08:55:58;13.80;50.21
76855;DHT22;66343;44.588;33.450;2023-05-10T08:58:30;13.85;51.91
76855;DHT22;66343;44.588;33.450;2023-05-10T09:01:05;14.05;51.25
76855;DHT22;66343;44.588;33.450;2023-05-10T09:03:43;14.23;50.85
76855;DHT22;66343;44.588;33.450;2023-05-10T09:06:21;14.34;48.12
76855;DHT22;66343;44.588;33.450;2023-05-10T09:08:52;14.24;50.35
76855;DHT22;66343;44.588;33.450;2023-05-10T09:11:22;14.37;49.25
76855;DHT22;66343;44.588;33.450;2023-05-10T09:13:55;14.42;47.80
76855;DHT22;66343;44.588;33.450;2023-05-10T09:16:25;14.55;48.17
76855;DHT22;66343;44.588;33.450;2023-05-10T09:18:58;14.67;46.57
76855;DHT22;66343;44.588;33.450;2023-05-10T09:21:28;14.57;46.33
76855;DHT22;66343;44.588;33.450;2023-05-10T09:24:06;14.36;48.76
76855;DHT22;66343;44.588;33.450;2023-05-10T09:26:48;14.22;48.60
76855;DHT22;66343;44.588;33.450;2023-05-10T09:29:24;14.19;49.84
76855;DHT22;66343;44.588;33.450;2023-05-10T09:31:56;14.29;50.20
76855;DHT22;66343;44.588;33.450;2023-05-10T09:34:30;14.33;52.43
76855;DHT22;66343;44.588;33.450;2023-05-10T09:37:04;14.40;53.17
76855;DHT22;66343;44.588;33.450;2023-05-10T09:39:39;14.21;51.92
76855;DHT22;66343;44.588;33.450;2023-05-10T09:42:18;14.14;51.16
76855;DHT22;66343;44.588;33.450;2023-05-10T09:44:51;14.09;52.69
76855;DHT22;66343;44.588;33.450;2023-05-10T09:47:22;14.01;51.88
76855;DHT22;66343;44.588;33.450;2023-05-10T09:49:54;13.97;52.17
76855;DHT22;66343;44.588;33.450;2023-05-10T09:53:04;13.95;52.69
76855;DHT22;66343;44.588;33.450;2023-05-10T09:55:46;13.98;52.42
76855;DHT22;66343;44.588;33.450;2023-05-10T09:58:18;13.92;52.30
76855;DHT22;66343;44.588;33.450;2023-05-10T10:00:48;13.92;54.13
76855;DHT22;66343;44.588;33.450;2023-05-10T10:03:26;13.92;53.14
76855;DHT22;66343;44.588;33.450;2023-05-10T10:05:58;14.06;51.93
76855;DHT22;66343;44.588;33.450;2023-05-10T10:08:35;14.10;50.88
76855;DHT22;66343;44.588;33.450;2023-05-10T10:11:08;14.22;49.98
76855;DHT22;66343;44.588;33.450;2023-05-10T10:13:42;14.47;51.29
76855;DHT22;66343;44.588;33.450;2023-05-10T10:16:12;14.75;49.56
76855;DHT22;66343;44.588;33.450;2023-05-10T10:18:47;14.81;48.51
76855;DHT22;66343;44.588;33.450;2023-05-10T10:21:23;14.99;48.88
76855;DHT22;66343;44.588;33.450;2023-05-10T10:23:58;14.97;47.20
76855;DHT22;66343;44.588;33.450;2023-05-10T10:26:35;14.87;48.61
76855;DHT22;66343;44.588;33.450;2023-05-10T10:29:21;14.69;48.82
76855;DHT22;66343;44.588;33.450;2023-05-10T10:35:23;14.41;49.50
76855;DHT22;66343;44.588;33.450;2023-05-10T10:37:59;14.39;51.01
76855;DHT22;66343;44.588;33.450;2023-05-10T10:40:33;14.51;52.90
76855;DHT22;66343;44.588;33.450;2023-05-10T10:43:22;14.86;48.98
76855;DHT22;66343;44.588;33.450;2023-05-10T10:46:18;15.02;48.99
76855;DHT22;66343;44.588;33.450;2023-05-10T10:49:10;15.25;48.51
76855;DHT22;66343;44.588;33.450;2023-05-10T10:52:13;15.23;48.57
76855;DHT22;66343;44.588;33.450;2023-05-10T10:55:14;15.44;46.51
76855;DHT22;66343;44.588;33.450;2023-05-10T10:57:56;15.26;46.17
76855;DHT22;66343;44.588;33.450;2023-05-10T11:00:37;15.33;47.04
76855;DHT22;66343;44.588;33.450;2023-05-10T11:03:13;15.65;44.70
76855;DHT22;66343;44.588;33.450;2023-05-10T11:05:58;15.67;44.80
76855;DHT22;66343;44.588;33.450;2023-05-10T11:08:31;15.47;45.77
76855;DHT22;66343;44.588;33.450;2023-05-10T11:11:17;15.54;45.41
76855;DHT22;66343;44.588;33.450;2023-05-10T11:13:49;15.75;46.39
76855;DHT22;66343;44.588;33.450;2023-05-10T11:16:25;15.82;46.94
76855;DHT22;66343;44.588;33.450;2023-05-10T11:21:32;15.55;46.86
76855;DHT22;66343;44.588;33.450;2023-05-10T11:24:15;15.71;47.05
76855;DHT22;66343;44.588;33.450;2023-05-10T11:26:49;15.91;45.71
76855;DHT22;66343;44.588;33.450;2023-05-10T11:29:22;16.16;47.58
76855;DHT22;66343;44.588;33.450;2023-05-10T11:31:59;16.37;45.38
76855;DHT22;66343;44.588;33.450;2023-05-10T11:34:35;16.52;43.45
76855;DHT22;66343;44.588;33.450;2023-05-10T11:37:09;16.79;44.28
76855;DHT22;66343;44.588;33.450;2023-05-10T11:39:46;16.58;44.19
76855;DHT22;66343;44.588;33.450;2023-05-10T11:42:27;16.46;43.79
76855;DHT22;66343;44.588;33.450;2023-05-10T11:45:03;16.08;43.56
76855;DHT22;66343;44.588;33.450;2023-05-10T11:47:35;15.72;45.37
76855;DHT22;66343;44.588;33.450;2023-05-10T11:50:07;15.59;44.98
76855;DHT22;66343;44.588;33.450;2023-05-10T11:52:42;15.93;44.70
76855;DHT22;66343;44.588;33.450;2023-05-10T11:55:22;16.05;43.76
76855;DHT22;66343;44.588;33.450;2023-05-10T11:58:02;16.26;44.02
76855;DHT22;66343;44.588;33.450;2023-05-10T12:00:37;16.66;43.98
76855;DHT22;66343;44.588;33.450;2023-05-10T12:03:12;17.05;44.48
76855;DHT22;66343;44.588;33.450;2023-05-10T12:05:45;17.23;42.77
76855;DHT22;66343;44.588;33.450;2023-05-10T12:08:19;17.28;42.87
76855;DHT22;66343;44.588;33.450;2023-05-10T12:10:54;16.90;43.77
76855;DHT22;66343;44.588;33.450;2023-05-10T12:13:42;16.76;43.73
76855;DHT22;66343;44.588;33.450;2023-05-10T12:16:27;16.98;43.32
76855;DHT22;66343;44.588;33.450;2023-05-10T12:18:59;17.44;42.17
76855;DHT22;66343;44.588;33.450;2023-05-10T12:21:51;17.69;42.13
76855;DHT22;66343;44.588;33.450;2023-05-10T12:24:23;17.96;39.49
76855;DHT22;66343;44.588;33.450;2023-05-10T12:26:59;18.35;39.55
76855;DHT22;66343;44.588;33.450;2023-05-10T12:29:33;18.73;39.41
76855;DHT22;66343;44.588;33.450;2023-05-10T12:32:08;19.00;38.27
76855;DHT22;66343;44.588;33.450;2023-05-10T12:34:41;19.01;37.39
76855;DHT22;66343;44.588;33.450;2023-05-10T12:37:14;19.03;37.69
76855;DHT22;66343;44.588;33.450;2023-05-10T12:39:46;19.18;38.47
76855;DHT22;66343;44.588;33.450;2023-05-10T12:42:21;19.28;37.95
76855;DHT22;66343;44.588;33.450;2023-05-10T12:44:59;19.38;37.89
76855;DHT22;66343;44.588;33.450;2023-05-10T12:47:35;19.22;37.42
76855;DHT22;66343;44.588;33.450;2023-05-10T12:50:05;19.15;36.52
76855;DHT22;66343;44.588;33.450;2023-05-10T12:52:38;19.25;35.27
76855;DHT22;66343;44.588;33.450;2023-05-10T12:55:11;19.60;34.12
76855;DHT22;66343;44.588;33.450;2023-05-10T12:57:46;19.90;34.13
76855;DHT22;66343;44.588;33.450;2023-05-10T13:00:17;20.13;36.50
76855;DHT22;66343;44.588;33.450;2023-05-10T13:02:52;20.07;36.19
76855;DHT22;66343;44.588;33.450;2023-05-10T13:05:24;20.04;35.21
76855;DHT22;66343;44.588;33.450;2023-05-10T13:07:58;20.00;36.28
76855;DHT22;66343;44.588;33.450;2023-05-10T13:10:31;19.98;33.64
76855;DHT22;66343;44.588;33.450;2023-05-10T13:13:05;20.04;34.78
76855;DHT22;66343;44.588;33.450;2023-05-10T13:15:41;20.07;35.27
76855;DHT22;66343;44.588;33.450;2023-05-10T13:18:13;20.07;34.60
76855;DHT22;66343;44.588;33.450;2023-05-10T13:20:46;20.25;35.77
76855;DHT22;66343;44.588;33.450;2023-05-10T13:23:20;20.13;35.28
76855;DHT22;66343;44.588;33.450;2023-05-10T13:25:52;20.24;34.60
76855;DHT22;66343;44.588;33.450;2023-05-10T13:28:28;20.39;34.96
76855;DHT22;66343;44.588;33.450;2023-05-10T13:31:04;20.16;36.27
76855;DHT22;66343;44.588;33.450;2023-05-10T13:33:36;20.13;36.85
76855;DHT22;66343;44.588;33.450;2023-05-10T13:36:06;20.33;36.22
76855;DHT22;66343;44.588;33.450;2023-05-10T13:38:38;20.36;35.85
76855;DHT22;66343;44.588;33.450;2023-05-10T13:41:10;20.46;35.33
76855;DHT22;66343;44.588;33.450;2023-05-10T13:43:40;20.46;35.22
76855;DHT22;66343;44.588;33.450;2023-05-10T13:46:09;20.53;35.84
76855;DHT22;66343;44.588;33.450;2023-05-10T13:48:39;20.44;35.01
76855;DHT22;66343;44.588;33.450;2023-05-10T13:51:11;20.62;34.64
76855;DHT22;66343;44.588;33.450;2023-05-10T13:53:41;20.43;35.10
76855;DHT22;66343;44.588;33.450;2023-05-10T13:56:21;20.60;35.24
76855;DHT22;66343;44.588;33.450;2023-05-10T13:58:55;20.59;34.58
76855;DHT22;66343;44.588;33.450;2023-05-10T14:01:28;20.47;35.42
76855;DHT22;66343;44.588;33.450;2023-05-10T14:04:04;20.94;34.87
76855;DHT22;66343;44.588;33.450;2023-05-10T14:06:42;21.07;33.41
76855;DHT22;66343;44.588;33.450;2023-05-10T14:09:14;21.15;34.48
76855;DHT22;66343;44.588;33.450;2023-05-10T14:11:51;21.45;34.59
76855;DHT22;66343;44.588;33.450;2023-05-10T14:14:24;21.07;35.04
76855;DHT22;66343;44.588;33.450;2023-05-10T14:16:55;20.58;36.33
76855;DHT22;66343;44.588;33.450;2023-05-10T14:19:31;20.34;37.66
76855;DHT22;66343;44.588;33.450;2023-05-10T14:22:06;19.75;37.01
76855;DHT22;66343;44.588;33.450;2023-05-10T14:24:43;19.20;38.82
76855;DHT22;66343;44.588;33.450;2023-05-10T14:27:16;19.21;39.79
76855;DHT22;66343;44.588;33.450;2023-05-10T14:29:47;19.79;39.53
76855;DHT22;66343;44.588;33.450;2023-05-10T14:32:19;20.17;38.30
76855;DHT22;66343;44.588;33.450;2023-05-10T14:34:51;19.81;37.99
76855;DHT22;66343;44.588;33.450;2023-05-10T14:37:21;19.08;40.51
76855;DHT22;66343;44.588;33.450;2023-05-10T14:39:57;18.57;42.03
76855;DHT22;66343;44.588;33.450;2023-05-10T14:42:51;18.54;44.10
76855;DHT22;66343;44.588;33.450;2023-05-10T14:45:26;17.99;46.84
76855;DHT22;66343;44.588;33.450;2023-05-10T14:48:10;18.07;46.44
76855;DHT22;66343;44.588;33.450;2023-05-10T14:50:49;18.56;44.90
76855;DHT22;66343;44.588;33.450;2023-05-10T14:53:18;18.46;45.90
76855;DHT22;66343;44.588;33.450;2023-05-10T14:55:53;18.26;47.27
76855;DHT22;66343;44.588;33.450;2023-05-10T14:58:26;18.13;48.08
76855;DHT22;66343;44.588;33.450;2023-05-10T15:00:58;17.66;48.25
76855;DHT22;66343;44.588;33.450;2023-05-10T15:03:30;17.55;49.40
76855;DHT22;66343;44.588;33.450;2023-05-10T15:06:09;17.58;48.67
76855;DHT22;66343;44.588;33.450;2023-05-10T15:08:39;18.06;48.29
76855;DHT22;66343;44.588;33.450;2023-05-10T15:11:10;18.51;46.16
76855;DHT22;66343;44.588;33.450;2023-05-10T15:13:42;18.71;46.53
76855;DHT22;66343;44.588;33.450;2023-05-10T15:16:16;18.61;45.81
76855;DHT22;66343;44.588;33.450;2023-05-10T15:18:46;18.58;46.75
76855;DHT22;66343;44.588;33.450;2023-05-10T15:21:17;18.67;46.59
76855;DHT22;66343;44.588;33.450;2023-05-10T15:23:49;18.92;45.70
76855;DHT22;66343;44.588;33.450;2023-05-10T15:26:23;19.25;43.85
76855;DHT22;66343;44.588;33.450;2023-05-10T15:28:57;19.16;44.18
76855;DHT22;66343;44.588;33.450;2023-05-10T15:31:27;19.13;44.91
76855;DHT22;66343;44.588;33.450;2023-05-10T15:33:59;19.30;45.16
76855;DHT22;66343;44.588;33.450;2023-05-10T15:36:34;19.20;44.32
76855;DHT22;66343;44.588;33.450;2023-05-10T15:39:06;18.79;45.02
76855;DHT22;66343;44.588;33.450;2023-05-10T15:41:43;18.71;45.77
76855;DHT22;66343;44.588;33.450;2023-05-10T15:44:14;18.65;45.94
76855;DHT22;66343;44.588;33.450;2023-05-10T15:46:49;18.79;45.72
76855;DHT22;66343;44.588;33.450;2023-05-10T15:49:22;18.92;43.81
76855;DHT22;66343;44.588;33.450;2023-05-10T15:51:54;18.86;44.96
76855;DHT22;66343;44.588;33.450;2023-05-10T15:54:32;18.58;45.49
76855;DHT22;66343;44.588;33.450;2023-05-10T15:57:04;18.48;45.11
76855;DHT22;66343;44.588;33.450;2023-05-10T15:59:33;18.44;44.43
76855;DHT22;66343;44.588;33.450;2023-05-10T16:02:08;18.38;44.94
76855;DHT22;66343;44.588;33.450;2023-05-10T16:04:47;18.05;46.76
76855;DHT22;66343;44.588;33.450;2023-05-10T16:07:17;17.66;49.02
76855;DHT22;66343;44.588;33.450;2023-05-10T16:09:52;17.31;50.18
76855;DHT22;66343;44.588;33.450;2023-05-10T16:12:27;16.95;51.05
76855;DHT22;66343;44.588;33.450;2023-05-10T16:14:59;16.89;51.72
76855;DHT22;66343;44.588;33.450;2023-05-10T16:17:31;16.91;51.23
76855;DHT22;66343;44.588;33.450;2023-05-10T16:20:03;16.96;50.63
76855;DHT22;66343;44.588;33.450;2023-05-10T16:22:34;17.02;49.90
76855;DHT22;66343;44.588;33.450;2023-05-10T16:25:04;17.07;49.79
76855;DHT22;66343;44.588;33.450;2023-05-10T16:27:34;16.98;50.27
76855;DHT22;66343;44.588;33.450;2023-05-10T16:30:07;16.79;48.91
76855;DHT22;66343;44.588;33.450;2023-05-10T16:32:38;16.63;49.73